Accueil
METAR-TAF:

METAR-TAF

Aéroports :

Elmendorf Air Force Base

Anchorage Elmendorf, Alaska, États-Unis

latitude: 61-15-11N, longitude: 149-47-38W, altitude: 65 m

Observation

Le bulletin a été fait il y a 15 minutes, à 14:56 UTC
Vent 5 kt de nord-ouest
Température 14°C
Humidité 82%
Pression 1015 hPa
Visibilité: 16.1 km
Ciel couvert à une hauteur de 12000 ft

METAR: PAED 201456Z AUTO 32005KT 10SM OVC120 14/11 A2998 RMK AO2 SLP148 60000 T01350114 57014 $

Heure: 07:11 (15:11 UTC)

Prévision

Le bulletin a été fait il y a 4 heures et 11 minutes, à 11:00 UTC
Prévision valable du 20 à 11 UTC au 21 à 17 UTC
Vent 6 kt de direction variable
Visibilité 10 km ou plus
Nuages fragmentés à une hauteur de 7000 ft
averses à proximité

TAF: PAED 201100Z 2011/2117 VRB06KT 9999 VCSH BKN070 620703 QNH2970INS TX17/2023Z TN10/2013Z

Observations et prévisions météorologiques de plus de 4000 aéroports (messages METAR et TAF).

Les stations disponibles sont représentées par des disques jaunes et rouges sur la carte.

Passer la souris dessus pour voir le nom de la station.

Cliquer dessus pour voir les observations et prévisions météorologiques.

Pour changer de carte: cliquez sur les boutons verts avec une croix noire pour zoomer, sur le bouton vert avec un tiret pour effectuer un zoom arrière, ou sur les flèches vertes pour les cartes adjacentes.


METAR-TAF: